Time;durP1;ratioP1;P1;durP2;ratioP2;P2;SDS_P1;SDS_P2;PMS_P1;PMS_P2;Temp;Humidity;BMP_temperature;BMP_pressure;BME280_temperature;BME280_humidity;BME280_pressure;Samples;Min_cycle;Max_cycle;Signal;HPM_P1;HPM_P2
2022/10/25 00:01:22;;;;;;;10.80;9.00;;;;;;;18.19;60.45;100869.10;105791;1306;22001;-67
2022/10/25 00:03:47;;;;;;;9.10;8.20;;;;;;;18.08;60.66;100865.76;105802;1306;21974;-67
2022/10/25 00:06:13;;;;;;;11.30;10.10;;;;;;;18.08;60.78;100859.55;105767;1306;21976;-64
2022/10/25 00:08:39;;;;;;;9.90;8.40;;;;;;;18.05;60.71;100856.10;105803;1303;21974;-66
2022/10/25 00:11:06;;;;;;;14.20;9.30;;;;;;;18.05;60.54;100856.64;105768;1306;21970;-63
2022/10/25 00:13:33;;;;;;;12.80;10.20;;;;;;;18.02;60.46;100850.00;106856;1301;21958;-67
2022/10/25 00:15:59;;;;;;;10.50;9.20;;;;;;;17.98;60.72;100847.98;105768;1306;21981;-67
2022/10/25 00:18:28;;;;;;;10.90;9.00;;;;;;;17.96;60.86;100845.54;105731;1305;22018;-68
2022/10/25 00:20:54;;;;;;;9.20;7.80;;;;;;;17.95;60.69;100840.26;105697;1306;21963;-64
2022/10/25 00:23:20;;;;;;;10.90;8.50;;;;;;;17.93;60.64;100837.46;105738;1306;21958;-65
2022/10/25 00:25:46;;;;;;;10.90;8.90;;;;;;;17.93;60.71;100841.39;105752;1306;22031;-67
2022/10/25 00:28:12;;;;;;;9.50;7.80;;;;;;;17.91;60.75;100837.20;105737;1306;21970;-64
2022/10/25 00:30:37;;;;;;;10.20;7.80;;;;;;;17.90;60.75;100837.41;105753;1306;21986;-65
2022/10/25 00:33:04;;;;;;;8.80;7.20;;;;;;;17.91;60.65;100835.05;105723;1306;21986;-68
2022/10/25 00:35:29;;;;;;;8.40;7.50;;;;;;;17.93;60.58;100831.80;105809;1306;21967;-64
2022/10/25 00:37:55;;;;;;;9.90;8.30;;;;;;;17.93;60.81;100831.27;105631;1307;21961;-63
2022/10/25 00:40:21;;;;;;;10.90;9.50;;;;;;;17.92;60.89;100830.60;105630;1307;21971;-69
2022/10/25 00:42:46;;;;;;;10.40;8.60;;;;;;;17.93;60.87;100828.08;105636;1304;21957;-68
2022/10/25 00:45:25;;;;;;;9.20;8.30;;;;;;;17.92;60.94;100830.77;105722;1306;22091;-68
2022/10/25 00:47:54;;;;;;;13.40;8.60;;;;;;;17.90;60.93;100825.70;105848;1306;21977;-68
2022/10/25 00:50:25;;;;;;;11.30;9.50;;;;;;;17.90;61.04;100822.32;105809;1306;21960;-63
2022/10/25 00:52:52;;;;;;;10.90;8.80;;;;;;;17.91;60.89;100819.95;105669;1306;21962;-67
2022/10/25 00:55:21;;;;;;;10.30;9.20;;;;;;;17.94;61.27;100816.66;105888;1306;21961;-68
2022/10/25 00:58:05;;;;;;;11.50;9.30;;;;;;;17.96;61.15;100813.40;105661;1306;21982;-68
2022/10/25 01:00:31;;;;;;;11.60;9.40;;;;;;;18.00;61.03;100810.09;105662;1309;21963;-67
2022/10/25 01:02:58;;;;;;;14.00;10.00;;;;;;;18.03;61.03;100814.62;105717;1306;21978;-68
2022/10/25 01:05:23;;;;;;;11.30;9.40;;;;;;;18.06;61.10;100814.31;105673;1307;21971;-63
2022/10/25 01:07:52;;;;;;;11.40;9.40;;;;;;;18.12;61.03;100811.77;105736;1306;24375;-67
2022/10/25 01:10:18;;;;;;;12.50;10.10;;;;;;;18.17;60.97;100813.23;105714;1306;21967;-62
2022/10/25 01:12:44;;;;;;;12.70;10.10;;;;;;;18.19;61.01;100812.06;105777;1301;22028;-63
2022/10/25 01:15:10;;;;;;;13.10;9.90;;;;;;;18.23;61.10;100810.88;105750;1301;21972;-63
2022/10/25 01:17:51;;;;;;;12.80;10.40;;;;;;;18.26;61.02;100807.89;105690;1306;21975;-67
2022/10/25 01:20:25;;;;;;;13.70;10.50;;;;;;;18.29;60.89;100807.61;105740;1306;21963;-67
2022/10/25 01:23:14;;;;;;;14.70;10.80;;;;;;;18.32;60.88;100799.86;106519;1306;21966;-64
2022/10/25 01:26:04;;;;;;;17.60;11.80;;;;;;;18.36;60.83;100794.03;105711;1302;22011;-63
2022/10/25 01:29:04;;;;;;;14.50;10.90;;;;;;;18.37;60.75;100792.04;105809;1306;21979;-68
2022/10/25 01:31:58;;;;;;;13.70;10.60;;;;;;;18.38;60.75;100788.06;105796;1306;21951;-63
2022/10/25 01:34:30;;;;;;;15.00;12.50;;;;;;;18.41;61.01;100778.73;105726;1306;22060;-69
2022/10/25 01:37:09;;;;;;;16.60;13.20;;;;;;;18.40;61.25;100778.59;105719;1306;22012;-63
2022/10/25 01:39:52;;;;;;;17.90;13.60;;;;;;;18.39;61.03;100774.02;105754;1306;21973;-68
2022/10/25 01:42:39;;;;;;;22.40;12.10;;;;;;;18.38;61.12;100772.24;105764;1306;21962;-64
2022/10/25 01:45:20;;;;;;;16.20;12.50;;;;;;;18.38;61.02;100770.48;105773;1306;21975;-68
2022/10/25 01:47:50;;;;;;;17.90;13.20;;;;;;;18.38;61.05;100763.95;105787;1306;22039;-67
2022/10/25 01:50:27;;;;;;;15.90;13.50;;;;;;;18.38;61.12;100757.71;105733;1306;21955;-63
2022/10/25 01:52:53;;;;;;;17.70;13.20;;;;;;;18.39;61.25;100761.41;105739;1297;21969;-68
2022/10/25 01:55:19;;;;;;;15.10;12.20;;;;;;;18.40;61.24;100761.01;105812;1306;21985;-64
2022/10/25 01:58:05;;;;;;;16.90;12.90;;;;;;;18.41;61.46;100760.42;105741;1306;22045;-68
2022/10/25 02:00:43;;;;;;;16.50;12.80;;;;;;;18.42;61.57;100760.94;105746;1301;21954;-68
2022/10/25 02:03:26;;;;;;;14.90;12.40;;;;;;;18.40;61.56;100762.40;105746;1306;21970;-68
2022/10/25 02:06:16;;;;;;;16.10;12.20;;;;;;;18.40;61.63;100764.00;105765;1300;22653;-68
2022/10/25 02:08:52;;;;;;;17.40;12.70;;;;;;;18.40;61.66;100770.60;105751;1306;21969;-68
2022/10/25 02:11:25;;;;;;;13.20;11.50;;;;;;;18.40;61.68;100768.11;105854;1306;21978;-63
2022/10/25 02:14:30;;;;;;;16.80;12.00;;;;;;;18.41;61.67;100769.30;105771;1307;21978;-64
2022/10/25 02:17:03;;;;;;;16.20;12.10;;;;;;;18.45;61.84;100771.30;105702;1306;22010;-64
2022/10/25 02:19:37;;;;;;;15.10;12.20;;;;;;;18.46;61.42;100767.02;105815;1306;21976;-64
2022/10/25 02:22:03;;;;;;;15.10;12.10;;;;;;;18.47;61.40;100766.79;105709;1305;21995;-68
2022/10/25 02:24:29;;;;;;;15.40;12.30;;;;;;;18.48;61.42;100761.61;105647;1306;21984;-67
2022/10/25 02:26:55;;;;;;;14.40;11.00;;;;;;;18.49;61.46;100763.67;105665;1306;21971;-63
2022/10/25 02:29:21;;;;;;;14.50;10.80;;;;;;;18.49;61.53;100764.75;105654;1306;21964;-63
2022/10/25 02:31:47;;;;;;;15.60;11.20;;;;;;;18.50;61.50;100763.47;105743;1306;21957;-64
2022/10/25 02:34:14;;;;;;;15.70;11.70;;;;;;;18.49;61.47;100763.50;105704;1306;21967;-65
2022/10/25 02:36:39;;;;;;;13.70;11.40;;;;;;;18.48;61.57;100766.39;105703;1306;21962;-65
2022/10/25 02:39:05;;;;;;;13.70;10.90;;;;;;;18.49;61.48;100768.85;105735;1306;22006;-65
2022/10/25 02:41:32;;;;;;;15.40;11.30;;;;;;;18.48;61.70;100771.54;105747;1306;24370;-65
2022/10/25 02:43:58;;;;;;;13.90;11.20;;;;;;;18.50;61.58;100773.23;105829;1306;21947;-65
2022/10/25 02:46:24;;;;;;;13.60;10.20;;;;;;;18.53;61.44;100776.16;105809;1297;21969;-67
2022/10/25 02:48:50;;;;;;;14.90;10.80;;;;;;;18.56;61.18;100775.48;105798;1306;21976;-68
2022/10/25 02:51:16;;;;;;;15.60;11.90;;;;;;;18.55;61.23;100772.70;105763;1306;21964;-65
2022/10/25 02:53:42;;;;;;;15.20;11.70;;;;;;;18.53;61.52;100769.05;105760;1306;21978;-67
2022/10/25 02:56:13;;;;;;;12.60;10.30;;;;;;;18.54;61.42;100768.13;105709;1306;21987;-68
2022/10/25 02:58:41;;;;;;;15.90;11.00;;;;;;;18.54;61.24;100768.13;105749;1306;22756;-67
2022/10/25 03:01:07;;;;;;;15.10;10.80;;;;;;;18.53;61.29;100763.20;105794;1306;21957;-64
2022/10/25 03:03:33;;;;;;;13.90;10.90;;;;;;;18.53;61.29;100761.04;105765;1306;21983;-65
2022/10/25 03:05:59;;;;;;;12.20;10.20;;;;;;;18.53;61.36;100756.59;105715;1306;21986;-65
2022/10/25 03:08:25;;;;;;;13.20;10.10;;;;;;;18.53;61.29;100754.81;105816;1306;21960;-65
2022/10/25 03:10:56;;;;;;;12.50;10.00;;;;;;;18.56;61.36;100755.05;105711;1306;21949;-65
2022/10/25 03:13:23;;;;;;;13.80;10.40;;;;;;;18.57;61.34;100753.77;105745;1305;22044;-68
2022/10/25 03:15:48;;;;;;;14.30;11.30;;;;;;;18.57;61.52;100750.39;105826;1306;22042;-68
2022/10/25 03:18:14;;;;;;;15.50;11.20;;;;;;;18.61;61.45;100747.23;105751;1306;21931;-65
2022/10/25 03:20:41;;;;;;;14.70;11.70;;;;;;;18.62;61.13;100747.71;105663;1302;21967;-68
2022/10/25 03:23:07;;;;;;;14.20;10.50;;;;;;;18.62;61.31;100748.41;105745;1305;21989;-68
2022/10/25 03:25:33;;;;;;;11.60;10.20;;;;;;;18.63;61.30;100745.38;105754;1306;21968;-65
2022/10/25 03:28:01;;;;;;;14.30;9.30;;;;;;;18.63;61.28;100742.17;106007;1305;21976;-68
2022/10/25 03:30:28;;;;;;;15.70;10.30;;;;;;;18.63;61.39;100739.31;105726;1306;21966;-68
2022/10/25 03:32:53;;;;;;;14.30;9.70;;;;;;;18.65;61.23;100739.40;105709;1306;21961;-68
2022/10/25 03:35:19;;;;;;;19.00;10.70;;;;;;;18.67;61.28;100739.52;105856;1306;21976;-65
2022/10/25 03:37:47;;;;;;;16.20;11.20;;;;;;;18.69;61.22;100735.34;105754;1306;21967;-68
2022/10/25 03:40:13;;;;;;;18.40;11.30;;;;;;;18.70;61.23;100732.66;105830;1306;22069;-67
2022/10/25 03:42:39;;;;;;;14.30;10.50;;;;;;;18.70;61.40;100730.70;105682;1306;21987;-67
2022/10/25 03:45:05;;;;;;;15.20;11.50;;;;;;;18.69;61.29;100730.71;105801;1306;21968;-65
2022/10/25 03:47:33;;;;;;;15.30;10.50;;;;;;;18.69;61.40;100731.44;105850;1301;22027;-66
2022/10/25 03:49:59;;;;;;;11.90;10.20;;;;;;;18.70;61.28;100724.48;105793;1306;21995;-68
2022/10/25 03:52:24;;;;;;;12.80;11.20;;;;;;;18.70;61.33;100718.09;105961;1306;23713;-68
2022/10/25 03:54:50;;;;;;;13.30;10.60;;;;;;;18.70;61.28;100715.56;105828;1306;21967;-67
2022/10/25 03:57:16;;;;;;;16.70;11.60;;;;;;;18.70;61.50;100713.78;105765;1303;22023;-65
2022/10/25 03:59:43;;;;;;;12.20;9.40;;;;;;;18.70;61.42;100709.52;105832;1306;23077;-67
2022/10/25 04:02:10;;;;;;;15.30;10.90;;;;;;;18.71;61.48;100708.05;105712;1306;23746;-67
2022/10/25 04:04:36;;;;;;;15.40;10.70;;;;;;;18.73;61.37;100707.46;105813;1306;22498;-67
2022/10/25 04:07:02;;;;;;;15.70;10.50;;;;;;;18.77;61.34;100707.82;105729;1306;21957;-66
2022/10/25 04:09:28;;;;;;;13.70;11.50;;;;;;;18.79;61.31;100710.07;105728;1306;22004;-66
2022/10/25 04:11:55;;;;;;;15.30;11.50;;;;;;;18.78;61.46;100703.34;105581;1306;202449;-67
2022/10/25 04:14:21;;;;;;;12.30;10.60;;;;;;;18.76;61.62;100697.55;105820;1306;21966;-67
2022/10/25 04:16:47;;;;;;;15.90;11.40;;;;;;;18.73;61.47;100697.15;105772;1306;21958;-68
2022/10/25 04:19:13;;;;;;;13.10;9.90;;;;;;;18.71;61.64;100692.06;105773;1306;22008;-65
2022/10/25 04:21:41;;;;;;;13.90;11.20;;;;;;;18.71;61.59;100694.21;105846;1306;21977;-65
2022/10/25 04:24:07;;;;;;;12.90;10.80;;;;;;;18.70;61.94;100696.20;105794;1306;21988;-68
2022/10/25 04:26:36;;;;;;;16.20;11.10;;;;;;;18.70;62.50;100694.06;105728;1306;21971;-68
2022/10/25 04:29:03;;;;;;;14.80;11.60;;;;;;;18.71;62.19;100689.05;105713;1306;21986;-68
2022/10/25 04:31:29;;;;;;;13.80;10.90;;;;;;;18.72;62.01;100686.34;105767;1306;22757;-67
2022/10/25 04:33:55;;;;;;;15.10;9.70;;;;;;;18.71;62.48;100684.42;105735;1306;21958;-69
2022/10/25 04:36:21;;;;;;;11.40;10.00;;;;;;;18.72;62.09;100683.14;105751;1306;21972;-67
2022/10/25 04:38:51;;;;;;;16.30;10.80;;;;;;;18.73;62.36;100681.33;105903;1301;21973;-67
2022/10/25 04:41:20;;;;;;;16.00;10.10;;;;;;;18.73;62.33;100680.80;105801;1305;23685;-66
2022/10/25 04:43:47;;;;;;;11.80;9.40;;;;;;;18.74;62.15;100677.38;105754;1306;21976;-66
2022/10/25 04:46:13;;;;;;;11.30;8.60;;;;;;;18.78;62.13;100678.30;105784;1306;21981;-65
2022/10/25 04:48:41;;;;;;;13.20;9.30;;;;;;;18.78;61.89;100673.30;105857;1306;24435;-65
2022/10/25 04:51:07;;;;;;;11.30;8.50;;;;;;;18.79;61.81;100673.27;105762;1301;21960;-66
2022/10/25 04:53:34;;;;;;;12.30;9.10;;;;;;;18.81;61.71;100672.13;105919;1305;21965;-68
2022/10/25 04:56:02;;;;;;;9.20;8.30;;;;;;;18.81;61.65;100672.12;105695;1306;21961;-68
2022/10/25 04:58:28;;;;;;;12.70;9.00;;;;;;;18.80;61.72;100673.38;105805;1306;21981;-65
2022/10/25 05:01:00;;;;;;;14.10;10.00;;;;;;;18.82;61.63;100669.92;105657;1306;21972;-67
2022/10/25 05:03:27;;;;;;;11.30;8.70;;;;;;;18.81;61.88;100669.27;105762;1306;23716;-69
2022/10/25 05:05:53;;;;;;;10.60;8.90;;;;;;;18.81;61.68;100667.15;105794;1306;21975;-67
2022/10/25 05:08:19;;;;;;;13.60;10.00;;;;;;;18.81;61.61;100671.75;105727;1306;21982;-69
2022/10/25 05:10:53;;;;;;;13.90;9.70;;;;;;;18.80;61.78;100671.81;105744;1306;21966;-66
2022/10/25 05:13:19;;;;;;;12.60;9.30;;;;;;;18.81;61.68;100670.88;105752;1306;21971;-66
2022/10/25 05:15:56;;;;;;;13.70;9.60;;;;;;;18.82;61.99;100675.78;105731;1306;21965;-66
2022/10/25 05:18:23;;;;;;;12.50;9.90;;;;;;;18.86;61.59;100678.12;105773;1306;21966;-70
2022/10/25 05:20:58;;;;;;;12.70;10.20;;;;;;;18.89;61.73;100678.89;105690;1306;23998;-67
2022/10/25 05:23:24;;;;;;;13.30;10.30;;;;;;;18.89;61.81;100680.14;105813;1306;21973;-69
2022/10/25 05:26:18;;;;;;;11.60;10.10;;;;;;;18.89;61.80;100681.90;105717;1306;22004;-67
2022/10/25 05:28:46;;;;;;;13.00;10.90;;;;;;;18.90;61.72;100677.81;105803;1306;21975;-66
2022/10/25 05:31:15;;;;;;;14.30;11.50;;;;;;;18.92;61.81;100675.22;105785;1306;21970;-69
2022/10/25 05:33:45;;;;;;;17.00;11.90;;;;;;;18.95;62.26;100672.95;105866;1305;21978;-66
2022/10/25 05:36:12;;;;;;;13.80;11.70;;;;;;;18.95;62.05;100672.08;105718;1306;21963;-70
2022/10/25 05:38:38;;;;;;;16.20;11.40;;;;;;;18.96;61.91;100674.19;105717;1306;21977;-67
2022/10/25 05:41:05;;;;;;;16.70;11.90;;;;;;;19.00;61.78;100671.17;105766;1301;21966;-72
2022/10/25 05:43:31;;;;;;;17.20;12.30;;;;;;;19.04;61.87;100669.05;105903;1306;22009;-66
2022/10/25 05:46:09;;;;;;;14.20;11.60;;;;;;;19.06;61.91;100667.16;105662;1306;21989;-70
2022/10/25 05:48:35;;;;;;;15.10;12.30;;;;;;;19.09;61.73;100668.27;105708;1306;21969;-69
2022/10/25 05:51:13;;;;;;;18.60;13.40;;;;;;;19.13;61.74;100666.70;105718;1298;21964;-70
2022/10/25 05:53:58;;;;;;;20.80;15.80;;;;;;;19.14;62.06;100666.31;105850;1306;22315;-68
2022/10/25 05:56:27;;;;;;;22.10;16.80;;;;;;;19.16;62.23;100663.36;105759;1305;23614;-69
2022/10/25 05:58:55;;;;;;;18.00;15.60;;;;;;;19.16;62.00;100661.79;105758;1305;21980;-66
2022/10/25 06:01:22;;;;;;;20.40;16.50;;;;;;;19.16;62.51;100661.95;105692;1306;25069;-63
2022/10/25 06:03:50;;;;;;;25.10;17.60;;;;;;;19.19;62.48;100660.20;105705;1306;21955;-66
2022/10/25 06:06:16;;;;;;;20.40;17.60;;;;;;;19.20;62.31;100660.70;105691;1302;22024;-70
2022/10/25 06:08:45;;;;;;;19.10;17.00;;;;;;;19.23;62.22;100661.84;105860;1306;21970;-67
2022/10/25 06:11:12;;;;;;;19.50;16.30;;;;;;;19.27;62.16;100661.29;105730;1306;22006;-67
2022/10/25 06:13:38;;;;;;;20.20;17.50;;;;;;;19.27;62.69;100661.48;105737;1306;23489;-69
2022/10/25 06:16:07;;;;;;;20.30;17.90;;;;;;;19.32;62.25;100660.16;105766;1305;21988;-67
2022/10/25 06:18:37;;;;;;;21.40;17.00;;;;;;;19.48;61.95;100664.27;105655;1306;23641;-66
2022/10/25 06:21:07;;;;;;;24.10;19.80;;;;;;;19.56;62.20;100663.56;105730;1306;22036;-69
2022/10/25 06:23:35;;;;;;;23.40;20.00;;;;;;;19.60;62.25;100658.22;105770;1306;21989;-68
2022/10/25 06:26:03;;;;;;;20.00;17.90;;;;;;;19.63;62.10;100660.41;105788;1306;22669;-68
2022/10/25 06:28:29;;;;;;;25.50;19.60;;;;;;;19.65;61.82;100662.11;105770;1301;21970;-68
2022/10/25 06:31:02;;;;;;;23.90;21.20;;;;;;;19.58;61.95;100660.61;105691;1308;21968;-69
2022/10/25 06:33:30;;;;;;;24.10;19.60;;;;;;;19.56;62.61;100662.50;105704;1308;21969;-68
2022/10/25 06:35:56;;;;;;;20.90;17.90;;;;;;;19.57;62.49;100663.88;105643;1306;23063;-68
2022/10/25 06:38:22;;;;;;;22.10;18.40;;;;;;;19.59;62.33;100660.92;105689;1306;21980;-69
2022/10/25 06:40:49;;;;;;;22.30;18.30;;;;;;;19.62;62.54;100661.33;105742;1306;21964;-69
2022/10/25 06:43:15;;;;;;;21.40;18.50;;;;;;;19.83;62.43;100656.11;105771;1301;21977;-68
2022/10/25 06:45:41;;;;;;;23.00;18.20;;;;;;;19.79;62.25;100651.33;105910;1306;21975;-68
2022/10/25 06:48:07;;;;;;;23.70;16.70;;;;;;;19.72;62.58;100648.40;105782;1306;23632;-67
2022/10/25 06:50:32;;;;;;;19.70;17.20;;;;;;;19.74;62.67;100648.84;105805;1306;21969;-68
2022/10/25 06:52:58;;;;;;;21.90;18.20;;;;;;;19.76;62.70;100647.86;105868;1306;21962;-68
2022/10/25 06:55:24;;;;;;;18.20;16.20;;;;;;;19.80;62.78;100647.35;105771;1306;21979;-68
2022/10/25 06:57:54;;;;;;;22.20;16.40;;;;;;;19.83;62.76;100647.55;105734;1306;21967;-68
2022/10/25 07:00:20;;;;;;;22.50;18.10;;;;;;;19.90;62.70;100645.46;105715;1303;21975;-68
2022/10/25 07:02:53;;;;;;;21.90;19.10;;;;;;;20.02;62.35;100645.48;105823;1306;21960;-68
2022/10/25 07:05:19;;;;;;;21.70;17.00;;;;;;;20.08;62.13;100645.86;105900;1306;21977;-68
2022/10/25 07:07:45;;;;;;;20.60;16.20;;;;;;;20.10;62.12;100647.71;105724;1309;21973;-67
2022/10/25 07:10:11;;;;;;;19.20;16.30;;;;;;;20.11;62.47;100647.34;105735;1307;21961;-67
2022/10/25 07:12:57;;;;;;;18.10;15.60;;;;;;;20.16;62.27;100650.34;105697;1309;23036;-68
2022/10/25 07:15:24;;;;;;;22.00;15.20;;;;;;;20.17;62.31;100648.83;105656;1306;21969;-67
2022/10/25 07:17:53;;;;;;;16.90;14.50;;;;;;;20.22;62.09;100643.98;105810;1305;22028;-68
2022/10/25 07:20:19;;;;;;;20.00;14.20;;;;;;;20.28;62.19;100643.70;105781;1306;21976;-68
2022/10/25 07:22:45;;;;;;;18.70;12.90;;;;;;;20.39;62.00;100647.05;105719;1306;22038;-67
2022/10/25 07:25:11;;;;;;;21.90;14.60;;;;;;;20.48;61.90;100647.71;105924;1306;22440;-65
2022/10/25 07:27:37;;;;;;;17.90;13.60;;;;;;;20.51;61.63;100650.23;105731;1306;21971;-67
2022/10/25 07:30:04;;;;;;;15.50;13.20;;;;;;;20.53;61.61;100648.55;105712;1306;21975;-66
2022/10/25 07:32:30;;;;;;;14.40;11.40;;;;;;;20.53;61.89;100647.65;105787;1305;21962;-66
2022/10/25 07:34:56;;;;;;;14.70;11.20;;;;;;;20.59;61.86;100647.85;105699;1306;21971;-66
2022/10/25 07:37:22;;;;;;;15.10;11.70;;;;;;;20.69;61.80;100646.11;105767;1306;21969;-66
2022/10/25 07:39:48;;;;;;;16.70;11.30;;;;;;;20.82;61.59;100642.33;105838;1299;21976;-66
2022/10/25 07:42:13;;;;;;;17.80;10.90;;;;;;;20.88;61.40;100636.11;105907;1306;21968;-66
2022/10/25 07:44:39;;;;;;;12.50;10.00;;;;;;;20.95;61.16;100638.78;105806;1305;21973;-67
2022/10/25 07:47:05;;;;;;;15.30;10.70;;;;;;;20.90;60.83;100637.04;105750;1306;21982;-66
2022/10/25 07:49:31;;;;;;;17.40;11.40;;;;;;;20.91;60.77;100633.97;105732;1306;22006;-66
2022/10/25 07:51:56;;;;;;;13.70;9.50;;;;;;;20.97;60.79;100626.91;105696;1306;21973;-66
2022/10/25 07:54:22;;;;;;;12.60;9.70;;;;;;;21.09;60.73;100627.54;105835;1306;21966;-66
2022/10/25 07:56:49;;;;;;;13.90;9.70;;;;;;;21.15;60.44;100623.12;105756;1306;21971;-67
2022/10/25 07:59:15;;;;;;;14.10;10.10;;;;;;;21.15;60.28;100620.98;105703;1304;23663;-67
2022/10/25 08:01:41;;;;;;;12.10;9.20;;;;;;;21.23;60.24;100616.48;105571;1306;22029;-67
2022/10/25 08:04:07;;;;;;;14.10;9.70;;;;;;;21.27;60.38;100612.86;105684;1306;21963;-66
2022/10/25 08:06:34;;;;;;;14.60;9.40;;;;;;;21.36;60.29;100610.75;105705;1306;23070;-66
2022/10/25 08:09:01;;;;;;;13.20;9.80;;;;;;;21.41;60.04;100606.04;105712;1305;21970;-67
2022/10/25 08:11:28;;;;;;;11.80;9.50;;;;;;;21.56;60.08;100599.87;105757;1306;23103;-66
2022/10/25 08:13:54;;;;;;;11.90;7.70;;;;;;;21.77;60.13;100597.67;105679;1306;22017;-67
2022/10/25 08:16:21;;;;;;;13.60;7.80;;;;;;;22.03;59.98;100598.74;106038;1298;23793;-67
2022/10/25 08:18:48;;;;;;;13.00;8.30;;;;;;;22.23;59.15;100593.15;105741;1306;22011;-67
2022/10/25 08:21:14;;;;;;;13.30;8.50;;;;;;;22.35;58.88;100594.77;105719;1306;22007;-66
2022/10/25 08:23:41;;;;;;;10.80;7.60;;;;;;;22.50;58.77;100588.39;105750;1306;21968;-67
2022/10/25 08:26:07;;;;;;;10.30;7.30;;;;;;;22.72;58.55;100582.42;105667;1306;21983;-66
2022/10/25 08:28:36;;;;;;;13.40;9.00;;;;;;;22.88;58.30;100582.73;105734;1305;21937;-67
2022/10/25 08:31:03;;;;;;;13.70;9.10;;;;;;;23.00;58.02;100584.54;105660;1306;21979;-66
2022/10/25 08:33:29;;;;;;;9.50;8.10;;;;;;;23.09;58.08;100584.88;105781;1306;21964;-66
2022/10/25 08:35:54;;;;;;;11.70;7.90;;;;;;;23.16;57.17;100590.33;105780;1305;21972;-66
2022/10/25 08:38:20;;;;;;;12.50;7.70;;;;;;;23.24;57.02;100593.65;105740;1306;21970;-65
2022/10/25 08:41:02;;;;;;;15.70;8.90;;;;;;;23.29;57.32;100592.39;105786;1306;21969;-65
2022/10/25 08:43:53;;;;;;;10.90;8.00;;;;;;;23.31;57.04;100588.52;105783;1302;22011;-66
2022/10/25 08:46:28;;;;;;;14.50;7.10;;;;;;;23.36;56.71;100586.12;105773;1306;21965;-66
2022/10/25 08:49:12;;;;;;;9.70;7.70;;;;;;;23.21;54.63;100588.08;105685;1306;21976;-65
2022/10/25 08:51:41;;;;;;;13.50;7.90;;;;;;;23.10;55.00;100589.63;105777;1306;21955;-67
2022/10/25 08:54:36;;;;;;;15.30;8.60;;;;;;;23.09;55.92;100591.84;105846;1306;22002;-66
2022/10/25 08:57:15;;;;;;;9.90;7.70;;;;;;;23.15;56.02;100588.08;105746;1306;21976;-67
2022/10/25 08:59:42;;;;;;;10.30;7.30;;;;;;;23.28;56.31;100583.70;105791;1305;21970;-66
2022/10/25 09:02:51;;;;;;;10.90;7.80;;;;;;;23.47;56.30;100582.73;105774;1306;21977;-66
2022/10/25 09:05:42;;;;;;;10.50;7.20;;;;;;;23.64;55.88;100576.26;105941;1306;23631;-67
2022/10/25 09:08:21;;;;;;;12.90;7.30;;;;;;;23.85;55.38;100570.99;105670;1308;21966;-66
2022/10/25 09:11:22;;;;;;;11.50;7.00;;;;;;;23.98;55.04;100569.06;105624;1304;21965;-65
2022/10/25 09:14:05;;;;;;;8.20;6.20;;;;;;;24.10;54.63;100563.83;105644;1306;21984;-66
2022/10/25 09:16:40;;;;;;;9.00;6.70;;;;;;;24.18;54.42;100562.19;105751;1306;21972;-67
2022/10/25 09:19:19;;;;;;;11.30;7.40;;;;;;;24.26;54.10;100561.37;105760;1306;22760;-66
2022/10/25 09:22:08;;;;;;;9.00;6.90;;;;;;;24.32;53.92;100560.19;105631;1307;21963;-67
2022/10/25 09:25:13;;;;;;;12.20;7.10;;;;;;;24.40;53.96;100556.47;105608;1307;21986;-67
2022/10/25 09:27:42;;;;;;;11.50;6.10;;;;;;;24.47;53.23;100554.57;105535;1306;22086;-66
2022/10/25 09:30:11;;;;;;;10.30;6.20;;;;;;;24.55;53.18;100553.13;105790;1303;21963;-66
2022/10/25 09:32:45;;;;;;;8.40;5.80;;;;;;;24.58;52.47;100554.33;105789;1305;21976;-66
2022/10/25 09:35:17;;;;;;;9.30;6.30;;;;;;;24.63;51.91;100548.98;105759;1306;21974;-67
2022/10/25 09:37:52;;;;;;;12.20;6.00;;;;;;;24.75;52.65;100544.08;105732;1306;21977;-67
2022/10/25 09:40:22;;;;;;;11.80;7.80;;;;;;;24.77;52.18;100544.08;105745;1306;22025;-67
2022/10/25 09:42:55;;;;;;;11.70;6.20;;;;;;;24.77;51.77;100538.38;105672;1307;21962;-66
2022/10/25 09:45:29;;;;;;;10.40;5.80;;;;;;;24.86;52.38;100535.08;105674;1305;21971;-67
2022/10/25 09:48:30;;;;;;;10.70;6.10;;;;;;;24.95;51.02;100533.68;105727;1305;21978;-68
2022/10/25 09:51:09;;;;;;;;;;;;;;;25.02;51.36;100527.30;105760;1302;21979;-67
2022/10/25 09:53:36;;;;;;;9.10;6.60;;;;;;;25.13;51.93;100521.14;105734;1305;21968;-67
2022/10/25 09:56:06;;;;;;;11.90;7.40;;;;;;;25.20;51.75;100517.57;105664;1306;21970;-67
2022/10/25 09:58:34;;;;;;;14.20;6.70;;;;;;;25.28;52.19;100519.39;105696;1302;21965;-67
2022/10/25 10:01:03;;;;;;;9.10;6.20;;;;;;;25.29;51.49;100520.02;105692;1304;21963;-67
2022/10/25 10:03:34;;;;;;;7.70;6.00;;;;;;;25.24;50.61;100513.19;105699;1294;21963;-67
2022/10/25 10:06:16;;;;;;;10.90;6.10;;;;;;;25.21;50.30;100515.71;105961;1302;22109;-66
2022/10/25 10:08:48;;;;;;;13.30;6.50;;;;;;;25.19;50.10;100509.80;105826;1306;21966;-66
2022/10/25 10:11:15;;;;;;;8.80;5.80;;;;;;;25.15;50.38;100508.08;105740;1305;21966;-67
2022/10/25 10:14:01;;;;;;;9.30;6.00;;;;;;;25.17;50.90;100500.41;105755;1306;23659;-66
2022/10/25 10:16:35;;;;;;;9.50;5.50;;;;;;;25.16;51.00;100500.63;107239;1306;23602;-67
2022/10/25 10:19:20;;;;;;;9.20;5.70;;;;;;;24.97;49.89;100502.34;105692;1306;22159;-66
2022/10/25 10:21:50;;;;;;;7.80;6.00;;;;;;;24.86;49.87;100497.03;105653;1306;22747;-67
2022/10/25 10:24:40;;;;;;;10.40;5.80;;;;;;;24.81;50.38;100492.35;105759;1301;21978;-66
2022/10/25 10:27:10;;;;;;;8.10;5.70;;;;;;;24.85;50.79;100493.48;105841;1305;21978;-65
2022/10/25 10:29:37;;;;;;;9.90;6.60;;;;;;;24.79;50.28;100494.45;105735;1306;21979;-66
2022/10/25 10:32:24;;;;;;;9.50;5.60;;;;;;;24.77;50.86;100490.64;105660;1306;22142;-67
2022/10/25 10:34:51;;;;;;;7.90;4.50;;;;;;;24.77;50.55;100487.41;105731;1306;21969;-68
2022/10/25 10:37:36;;;;;;;8.00;5.30;;;;;;;24.75;50.03;100484.46;105825;1306;22066;-67
2022/10/25 13:48:01;;;;;;;14.30;7.50;;;;;;;20.16;67.10;100386.66;105839;1300;548268;-66
2022/10/25 13:50:32;;;;;;;10.70;7.00;;;;;;;22.07;61.14;100372.65;106278;1301;21961;-66
2022/10/25 13:53:10;;;;;;;11.30;7.00;;;;;;;22.35;59.88;100367.05;106284;1303;21958;-66
2022/10/25 13:55:37;;;;;;;12.80;6.70;;;;;;;22.42;59.48;100363.92;106285;1298;21957;-67
2022/10/25 13:58:28;;;;;;;10.60;6.00;;;;;;;22.46;59.18;100364.41;106322;1302;21983;-67
2022/10/25 14:00:55;;;;;;;11.10;5.50;;;;;;;22.50;58.88;100366.18;106474;1300;21951;-66
2022/10/25 14:03:26;;;;;;;13.90;6.70;;;;;;;22.57;58.47;100364.84;106776;1300;21962;-66
2022/10/25 14:05:55;;;;;;;;;;;;;;;22.63;58.04;100361.92;106377;1300;21979;-67
2022/10/25 14:08:30;;;;;;;14.70;6.40;;;;;;;22.60;57.97;100364.97;106707;1300;22947;-67
2022/10/25 14:11:02;;;;;;;18.30;9.30;;;;;;;22.61;57.91;100365.12;106705;1300;21964;-67
2022/10/25 14:13:34;;;;;;;9.60;6.60;;;;;;;22.67;57.61;100359.91;106415;1301;21955;-68
2022/10/25 14:16:04;;;;;;;14.70;6.60;;;;;;;22.67;57.44;100356.50;106534;1298;21955;-66
2022/10/25 14:18:32;;;;;;;12.70;7.80;;;;;;;22.70;57.39;100355.96;106389;1292;21996;-67
2022/10/25 14:21:04;;;;;;;12.90;7.20;;;;;;;22.71;57.18;100348.22;106204;1300;21961;-67
2022/10/25 14:23:33;;;;;;;16.50;8.90;;;;;;;22.70;57.10;100346.48;106218;1300;23622;-67
2022/10/25 14:26:00;;;;;;;13.80;7.70;;;;;;;22.61;57.34;100346.89;106599;1300;21992;-67
2022/10/25 14:28:31;;;;;;;13.00;7.90;;;;;;;22.57;57.28;100344.05;106468;1300;23239;-67
2022/10/25 14:31:02;;;;;;;;;;;;;;;22.51;57.22;100345.56;106462;1299;23879;-67